createdAt,value
2023-01-08T00:00:40.082Z,3.28
2023-01-08T00:02:11.833Z,4.24
2023-01-08T00:03:48.599Z,3.71
2023-01-08T00:05:35.309Z,2.93
2023-01-08T00:07:06.795Z,2.50
2023-01-08T00:08:54.622Z,2.96
2023-01-08T00:10:26.396Z,2.48
2023-01-08T00:12:05.383Z,2.56
2023-01-08T00:13:36.761Z,2.41
2023-01-08T00:15:08.297Z,1.86
2023-01-08T00:16:39.863Z,2.24
2023-01-08T00:18:18.986Z,2.66
2023-01-08T00:19:50.291Z,2.18
2023-01-08T00:21:21.851Z,2.95
2023-01-08T00:22:53.143Z,2.80
2023-01-08T00:24:24.505Z,2.44
2023-01-08T00:26:15.866Z,2.62
2023-01-08T00:27:47.301Z,3.67
2023-01-08T00:29:18.716Z,2.33
2023-01-08T00:30:50.316Z,2.93
2023-01-08T00:32:22.311Z,3.42
2023-01-08T00:33:53.656Z,2.49
2023-01-08T00:35:26.167Z,2.94
2023-01-08T00:36:57.506Z,3.17
2023-01-08T00:38:28.959Z,2.53
2023-01-08T00:40:00.370Z,2.25
2023-01-08T00:41:31.918Z,2.37
2023-01-08T00:43:03.482Z,2.16
2023-01-08T00:44:34.967Z,2.34
2023-01-08T00:46:06.843Z,3.30
2023-01-08T00:47:38.722Z,2.75
2023-01-08T00:49:10.586Z,2.13
2023-01-08T00:50:42.608Z,3.36
2023-01-08T00:52:14.205Z,2.58
2023-01-08T00:53:45.664Z,3.11
2023-01-08T00:55:17.057Z,3.60
2023-01-08T00:56:48.609Z,2.52
2023-01-08T00:58:19.910Z,3.24
2023-01-08T01:00:01.276Z,3.66
2023-01-08T01:01:33.185Z,1.82
2023-01-08T01:03:04.973Z,2.27
2023-01-08T01:04:36.395Z,3.22
2023-01-08T01:06:07.997Z,2.67
2023-01-08T01:07:39.348Z,2.84
2023-01-08T01:09:10.764Z,2.78
2023-01-08T01:10:42.307Z,3.05
2023-01-08T01:12:23.692Z,2.44
2023-01-08T01:13:55.094Z,2.22
2023-01-08T01:15:26.612Z,1.62
2023-01-08T01:16:57.981Z,1.69
2023-01-08T01:18:30.758Z,2.63
2023-01-08T01:20:02.161Z,2.97
2023-01-08T01:21:33.510Z,2.50
2023-01-08T01:23:04.912Z,3.46
2023-01-08T01:24:36.497Z,2.23
2023-01-08T01:26:07.861Z,2.45
2023-01-08T01:27:39.320Z,1.96
2023-01-08T01:29:10.619Z,3.54
2023-01-08T01:30:42.121Z,2.65
2023-01-08T01:32:13.682Z,2.38
2023-01-08T01:33:45.105Z,2.69
2023-01-08T01:35:16.436Z,2.47
2023-01-08T01:36:48.276Z,1.90
2023-01-08T01:38:19.738Z,2.02
2023-01-08T01:39:51.465Z,3.22
2023-01-08T01:41:22.972Z,2.38
2023-01-08T01:42:55.261Z,2.58
2023-01-08T01:44:26.562Z,2.86
2023-01-08T01:46:03.059Z,1.76
2023-01-08T01:47:34.785Z,1.81
2023-01-08T01:49:06.059Z,2.47
2023-01-08T01:50:37.556Z,2.68
2023-01-08T01:52:09.221Z,2.21
2023-01-08T01:53:40.601Z,2.90
2023-01-08T01:55:12.254Z,2.53
2023-01-08T01:56:43.607Z,2.82
2023-01-08T01:58:15.034Z,2.14
2023-01-08T01:59:46.387Z,2.21
2023-01-08T02:01:17.935Z,2.60
2023-01-08T02:02:49.346Z,2.28
2023-01-08T02:04:20.925Z,1.85
2023-01-08T02:05:52.537Z,3.47
2023-01-08T02:07:24.112Z,2.73
2023-01-08T02:08:56.275Z,2.84
2023-01-08T02:10:27.920Z,2.92
2023-01-08T02:11:59.428Z,2.59
2023-01-08T02:13:30.755Z,2.87
2023-01-08T02:15:02.144Z,4.68
2023-01-08T02:16:33.759Z,2.84
2023-01-08T02:18:05.089Z,2.91
2023-01-08T02:19:36.547Z,3.09
2023-01-08T02:21:09.083Z,2.50
2023-01-08T02:22:40.384Z,3.45
2023-01-08T02:24:11.774Z,3.60
2023-01-08T02:25:43.638Z,4.05
2023-01-08T02:27:15.058Z,4.16
2023-01-08T02:28:46.396Z,3.86
2023-01-08T02:30:17.705Z,4.41
2023-01-08T02:31:49.130Z,2.51
2023-01-08T02:33:20.488Z,2.57
2023-01-08T02:34:51.788Z,2.38
2023-01-08T02:36:23.247Z,3.61
2023-01-08T02:37:54.761Z,4.15
2023-01-08T02:39:26.236Z,3.15
2023-01-08T02:40:57.824Z,4.72
2023-01-08T02:42:29.355Z,3.15
2023-01-08T02:44:00.598Z,3.39
2023-01-08T02:45:32.135Z,4.22
2023-01-08T02:47:03.668Z,2.72
2023-01-08T02:48:35.085Z,4.01
2023-01-08T02:50:06.461Z,2.91
2023-01-08T02:51:37.913Z,3.84
2023-01-08T02:53:09.895Z,3.09
2023-01-08T02:54:41.348Z,3.17
2023-01-08T02:56:13.075Z,3.65
2023-01-08T02:57:44.543Z,4.38
2023-01-08T02:59:15.882Z,4.07
2023-01-08T03:00:47.202Z,3.15
2023-01-08T03:02:18.881Z,3.78
2023-01-08T03:03:50.600Z,3.63
2023-01-08T03:05:22.075Z,4.28
2023-01-08T03:06:53.398Z,3.98
2023-01-08T03:08:24.905Z,3.06
2023-01-08T03:09:56.215Z,2.65
2023-01-08T03:11:27.691Z,2.94
2023-01-08T03:12:59.346Z,3.38
2023-01-08T03:14:30.976Z,3.12
2023-01-08T03:16:02.804Z,3.38
2023-01-08T03:17:34.197Z,3.83
2023-01-08T03:19:06.787Z,4.67
2023-01-08T03:20:38.774Z,3.61
2023-01-08T03:22:10.554Z,3.87
2023-01-08T03:23:42.000Z,4.38
2023-01-08T03:25:13.729Z,3.58
2023-01-08T03:26:45.261Z,4.46
2023-01-08T03:28:16.574Z,4.96
2023-01-08T03:29:47.906Z,3.84
2023-01-08T03:31:19.409Z,3.67
2023-01-08T03:32:50.923Z,3.34
2023-01-08T03:34:22.304Z,3.70
2023-01-08T03:35:53.948Z,4.30
2023-01-08T03:37:25.432Z,3.32
2023-01-08T03:38:56.700Z,4.83
2023-01-08T03:40:28.181Z,4.65
2023-01-08T03:41:59.561Z,3.38
2023-01-08T03:43:30.995Z,3.36
2023-01-08T03:45:02.791Z,3.03
2023-01-08T03:46:34.268Z,3.24
2023-01-08T03:48:05.765Z,4.10
2023-01-08T03:49:37.053Z,4.64
2023-01-08T03:51:08.473Z,3.24
2023-01-08T03:52:44.939Z,3.44
2023-01-08T03:54:16.260Z,3.00
2023-01-08T03:55:47.778Z,3.63
2023-01-08T03:57:19.221Z,3.66
2023-01-08T03:58:50.574Z,2.71
2023-01-08T04:00:21.896Z,2.52
2023-01-08T04:01:53.446Z,2.50
2023-01-08T04:03:25.135Z,2.21
2023-01-08T04:04:56.475Z,2.80
2023-01-08T04:06:27.756Z,2.20
2023-01-08T04:07:59.066Z,2.74
2023-01-08T04:09:31.197Z,3.25
2023-01-08T04:11:02.696Z,3.64
2023-01-08T04:12:34.248Z,3.06
2023-01-08T04:14:05.548Z,3.22
2023-01-08T04:15:36.921Z,2.91
2023-01-08T04:17:08.546Z,2.58
2023-01-08T04:18:40.034Z,3.45
2023-01-08T04:20:11.459Z,2.26
2023-01-08T04:21:42.733Z,3.00
2023-01-08T04:23:14.063Z,2.75
2023-01-08T04:24:45.497Z,3.19
2023-01-08T04:26:17.020Z,2.26
2023-01-08T04:27:48.918Z,2.26
2023-01-08T04:29:20.273Z,3.03
2023-01-08T04:30:51.755Z,2.34
2023-01-08T04:32:23.073Z,2.75
2023-01-08T04:33:54.514Z,2.12
2023-01-08T04:35:25.845Z,3.25
2023-01-08T04:36:57.168Z,1.96
2023-01-08T04:38:28.585Z,3.38
2023-01-08T04:40:00.557Z,2.43
2023-01-08T04:41:31.846Z,1.74
2023-01-08T04:43:03.146Z,2.39
2023-01-08T04:44:34.702Z,2.29
2023-01-08T04:46:06.016Z,2.07
2023-01-08T04:47:37.315Z,2.97
2023-01-08T04:49:08.812Z,2.64
2023-01-08T04:50:40.407Z,2.91
2023-01-08T04:52:11.818Z,2.04
2023-01-08T04:53:43.244Z,2.95
2023-01-08T04:55:14.668Z,2.07
2023-01-08T04:56:46.041Z,2.35
2023-01-08T04:58:17.396Z,2.37
2023-01-08T04:59:48.724Z,1.98
2023-01-08T05:01:20.341Z,2.24
2023-01-08T05:02:52.335Z,1.92
2023-01-08T05:04:23.701Z,1.94
2023-01-08T05:06:00.131Z,3.00
2023-01-08T05:07:31.463Z,2.58
2023-01-08T05:09:03.002Z,2.28
2023-01-08T05:10:34.475Z,2.96
2023-01-08T05:12:05.825Z,3.34
2023-01-08T05:13:37.079Z,2.58
2023-01-08T05:15:08.452Z,2.63
2023-01-08T05:16:39.870Z,2.63
2023-01-08T05:18:11.438Z,2.21
2023-01-08T05:19:43.136Z,2.20
2023-01-08T05:21:14.603Z,2.06
2023-01-08T05:22:46.315Z,3.38
2023-01-08T05:24:17.733Z,2.15
2023-01-08T05:25:49.524Z,2.77
2023-01-08T05:27:20.918Z,2.53
2023-01-08T05:28:52.425Z,1.74
2023-01-08T05:30:23.805Z,2.97
2023-01-08T05:31:55.339Z,2.18
2023-01-08T05:33:26.631Z,2.18
2023-01-08T05:34:57.944Z,2.43
2023-01-08T05:36:29.460Z,2.36
2023-01-08T05:38:00.770Z,1.71
2023-01-08T05:39:32.211Z,2.88
2023-01-08T05:41:03.680Z,1.82
2023-01-08T05:42:36.277Z,1.93
2023-01-08T05:44:07.884Z,2.20
2023-01-08T05:45:39.583Z,1.87
2023-01-08T05:47:10.814Z,1.69
2023-01-08T05:48:42.286Z,2.19
2023-01-08T05:50:13.706Z,2.00
2023-01-08T05:51:45.204Z,1.89
2023-01-08T05:53:16.577Z,1.46
2023-01-08T05:54:48.277Z,1.63
2023-01-08T05:56:19.810Z,4.81
2023-01-08T05:57:51.210Z,2.40
2023-01-08T05:59:22.546Z,2.03
2023-01-08T06:00:53.820Z,2.38
2023-01-08T06:02:25.153Z,1.93
2023-01-08T06:03:56.792Z,1.87
2023-01-08T06:05:28.460Z,2.09
2023-01-08T06:06:59.869Z,1.42
2023-01-08T06:08:31.166Z,1.41
2023-01-08T06:10:02.592Z,1.73
2023-01-08T06:11:33.900Z,1.77
2023-01-08T06:13:05.281Z,1.36
2023-01-08T06:14:37.011Z,2.17
2023-01-08T06:16:08.581Z,1.82
2023-01-08T06:17:40.206Z,1.54
2023-01-08T06:19:11.559Z,1.61
2023-01-08T06:20:43.050Z,2.90
2023-01-08T06:22:14.451Z,2.05
2023-01-08T06:23:45.788Z,2.20
2023-01-08T06:25:17.119Z,1.52
2023-01-08T06:26:48.414Z,1.23
2023-01-08T06:28:19.701Z,1.33
2023-01-08T06:29:51.531Z,1.45
2023-01-08T06:31:22.888Z,2.08
2023-01-08T06:32:54.166Z,1.38
2023-01-08T06:34:25.787Z,1.32
2023-01-08T06:35:57.221Z,1.84
2023-01-08T06:37:28.560Z,1.59
2023-01-08T06:39:00.100Z,1.52
2023-01-08T06:40:31.481Z,2.32
2023-01-08T06:42:02.768Z,1.59
2023-01-08T06:43:34.164Z,1.40
2023-01-08T06:45:07.802Z,1.72
2023-01-08T06:46:39.174Z,1.39
2023-01-08T06:48:10.677Z,1.94
2023-01-08T06:49:42.028Z,1.17
2023-01-08T06:51:13.554Z,1.51
2023-01-08T06:52:44.866Z,2.18
2023-01-08T06:54:16.297Z,1.94
2023-01-08T06:55:48.015Z,2.19
2023-01-08T06:57:19.522Z,1.33
2023-01-08T06:58:52.154Z,1.50
2023-01-08T07:00:23.507Z,1.81
2023-01-08T07:01:54.924Z,1.47
2023-01-08T07:03:26.371Z,1.00
2023-01-08T07:04:57.701Z,1.86
2023-01-08T07:06:29.039Z,2.21
2023-01-08T07:08:00.432Z,1.46
2023-01-08T07:09:31.739Z,1.72
2023-01-08T07:11:03.056Z,1.18
2023-01-08T07:12:34.506Z,3.32
2023-01-08T07:14:05.770Z,2.14
2023-01-08T07:15:37.153Z,1.38
2023-01-08T07:17:08.782Z,1.58
2023-01-08T07:18:40.218Z,1.26
2023-01-08T07:20:11.552Z,1.61
2023-01-08T07:21:42.869Z,2.23
2023-01-08T07:23:14.172Z,2.38
2023-01-08T07:24:46.090Z,1.79
2023-01-08T07:26:17.452Z,1.27
2023-01-08T07:27:48.877Z,1.41
2023-01-08T07:29:20.185Z,1.29
2023-01-08T07:30:51.490Z,1.83
2023-01-08T07:32:22.805Z,2.06
2023-01-08T07:33:54.402Z,2.65
2023-01-08T07:35:30.859Z,1.92
2023-01-08T07:37:02.507Z,2.36
2023-01-08T07:38:33.785Z,2.34
2023-01-08T07:40:05.107Z,1.17
2023-01-08T07:41:36.427Z,2.00
2023-01-08T07:43:07.824Z,1.50
2023-01-08T07:45:28.166Z,1.61
2023-01-08T07:46:59.645Z,2.64
2023-01-08T07:48:30.951Z,1.97
2023-01-08T07:50:02.262Z,2.04
2023-01-08T07:51:33.582Z,2.27
2023-01-08T07:53:04.989Z,2.13
2023-01-08T07:54:36.550Z,1.82
2023-01-08T07:56:07.807Z,2.28
2023-01-08T07:57:39.628Z,3.01
2023-01-08T07:59:11.181Z,3.14
2023-01-08T08:00:42.539Z,2.56
2023-01-08T08:02:13.988Z,1.95
2023-01-08T08:03:45.306Z,1.73
2023-01-08T08:05:21.902Z,3.81
2023-01-08T08:06:53.238Z,3.01
2023-01-08T08:08:24.538Z,2.96
2023-01-08T08:10:06.162Z,2.77
2023-01-08T08:11:37.683Z,2.42
2023-01-08T08:13:09.139Z,2.83
2023-01-08T08:14:40.520Z,2.33
2023-01-08T08:16:12.162Z,2.68
2023-01-08T08:17:43.532Z,2.06
2023-01-08T08:19:15.023Z,2.59
2023-01-08T08:20:46.330Z,2.18
2023-01-08T08:22:17.640Z,2.55
2023-01-08T08:23:49.160Z,2.71
2023-01-08T08:25:20.436Z,3.80
2023-01-08T08:26:51.763Z,2.49
2023-01-08T08:28:23.302Z,2.79
2023-01-08T08:29:54.795Z,3.21
2023-01-08T08:31:26.199Z,3.78
2023-01-08T08:32:57.527Z,4.47
2023-01-08T08:34:28.851Z,3.23
2023-01-08T08:36:00.138Z,5.50
2023-01-08T08:37:31.520Z,4.42
2023-01-08T08:39:07.810Z,2.92
2023-01-08T08:40:40.401Z,2.89
2023-01-08T08:42:11.931Z,5.25
2023-01-08T08:43:43.454Z,5.02
2023-01-08T08:45:14.755Z,3.75
2023-01-08T08:46:46.097Z,4.10
2023-01-08T08:48:18.344Z,4.52
2023-01-08T08:49:49.664Z,4.87
2023-01-08T08:51:21.067Z,4.10
2023-01-08T08:52:52.493Z,5.23
2023-01-08T08:54:23.800Z,4.38
2023-01-08T08:55:55.306Z,4.11
2023-01-08T08:57:26.728Z,4.60
2023-01-08T08:58:58.049Z,5.12
2023-01-08T09:00:29.342Z,4.03
2023-01-08T09:02:00.858Z,5.53
2023-01-08T09:03:32.491Z,6.10
2023-01-08T09:05:03.959Z,6.85
2023-01-08T09:06:35.206Z,4.79
2023-01-08T09:08:06.484Z,4.31
2023-01-08T09:09:37.965Z,7.14
2023-01-08T09:11:14.524Z,7.69
2023-01-08T09:12:45.971Z,8.39
2023-01-08T09:14:17.462Z,7.14
2023-01-08T09:15:48.985Z,8.22
2023-01-08T09:17:20.310Z,9.66
2023-01-08T09:18:51.613Z,9.86
2023-01-08T09:20:23.361Z,10.52
2023-01-08T09:21:54.658Z,9.88
2023-01-08T09:23:26.160Z,8.80
2023-01-08T09:24:57.579Z,9.54
2023-01-08T09:26:28.865Z,7.53
2023-01-08T09:28:00.613Z,9.33
2023-01-08T09:29:32.779Z,7.66
2023-01-08T09:31:04.314Z,11.20
2023-01-08T09:32:35.634Z,10.55
2023-01-08T09:34:06.904Z,9.38
2023-01-08T09:35:38.346Z,10.33
2023-01-08T09:37:09.608Z,9.97
2023-01-08T09:38:41.013Z,8.26
2023-01-08T09:40:12.438Z,9.22
2023-01-08T09:41:43.875Z,11.17
2023-01-08T09:43:15.185Z,13.11
2023-01-08T09:44:46.517Z,11.09
2023-01-08T09:46:18.035Z,8.33
2023-01-08T09:47:49.649Z,9.86
2023-01-08T09:49:21.128Z,10.78
2023-01-08T09:50:52.554Z,12.16
2023-01-08T09:52:24.157Z,12.63
2023-01-08T09:53:55.832Z,10.75
2023-01-08T09:55:27.155Z,9.49
2023-01-08T09:56:58.935Z,9.70
2023-01-08T09:58:30.237Z,10.47
2023-01-08T10:00:01.711Z,8.95
2023-01-08T10:01:33.255Z,11.50
2023-01-08T10:03:04.934Z,10.90
2023-01-08T10:04:36.375Z,8.51
2023-01-08T10:06:12.838Z,9.24
2023-01-08T10:07:44.417Z,9.58
2023-01-08T10:09:15.915Z,9.13
2023-01-08T10:10:47.423Z,8.31
2023-01-08T10:12:19.854Z,8.58
2023-01-08T10:13:51.444Z,8.77
2023-01-08T10:15:22.811Z,10.33
2023-01-08T10:16:54.290Z,9.60
2023-01-08T10:18:25.700Z,8.23
2023-01-08T10:20:02.152Z,7.16
2023-01-08T10:21:33.556Z,8.00
2023-01-08T10:23:04.900Z,7.64
2023-01-08T10:24:36.270Z,7.69
2023-01-08T10:26:08.642Z,8.49
2023-01-08T10:27:40.267Z,7.41
2023-01-08T10:29:11.718Z,8.30
2023-01-08T10:30:43.174Z,9.06
2023-01-08T10:32:14.628Z,7.90
2023-01-08T10:33:46.129Z,7.65
2023-01-08T10:35:17.469Z,6.37
2023-01-08T10:36:48.734Z,7.84
2023-01-08T10:38:20.081Z,6.97
2023-01-08T10:39:51.408Z,6.43
2023-01-08T10:41:22.718Z,6.59
2023-01-08T10:42:54.051Z,6.28
2023-01-08T10:44:25.660Z,6.43
2023-01-08T10:45:57.084Z,5.87
2023-01-08T10:47:28.537Z,5.87
2023-01-08T10:48:59.944Z,6.24
2023-01-08T10:50:31.262Z,5.15
2023-01-08T10:52:02.921Z,4.91
2023-01-08T10:53:34.221Z,5.49
2023-01-08T10:55:05.655Z,4.67
2023-01-08T10:56:36.996Z,5.59
2023-01-08T10:58:09.039Z,4.94
2023-01-08T10:59:40.439Z,4.85
2023-01-08T11:01:12.015Z,4.98
2023-01-08T11:02:43.608Z,5.57
2023-01-08T11:04:15.003Z,3.51
2023-01-08T11:05:46.486Z,4.68
2023-01-08T11:07:17.929Z,4.12
2023-01-08T11:08:51.518Z,4.40
2023-01-08T11:10:23.545Z,3.66
2023-01-08T11:11:54.915Z,3.97
2023-01-08T11:13:26.293Z,5.05
2023-01-08T11:14:57.733Z,3.13
2023-01-08T11:16:29.389Z,2.29
2023-01-08T11:18:01.021Z,3.55
2023-01-08T11:19:32.403Z,3.98
2023-01-08T11:21:04.040Z,4.08
2023-01-08T11:22:35.578Z,4.01
2023-01-08T11:24:07.101Z,2.82
2023-01-08T11:25:38.653Z,5.46
2023-01-08T11:27:09.991Z,4.30
2023-01-08T11:28:46.703Z,4.27
2023-01-08T11:30:18.253Z,3.65
2023-01-08T11:31:49.795Z,3.47
2023-01-08T11:33:21.307Z,3.39
2023-01-08T11:34:53.025Z,3.01
2023-01-08T11:36:24.743Z,3.79
2023-01-08T11:37:56.115Z,5.13
2023-01-08T11:39:27.637Z,4.20
2023-01-08T11:40:59.108Z,3.94
2023-01-08T11:42:30.620Z,4.37
2023-01-08T11:44:01.955Z,3.60
2023-01-08T11:47:25.533Z,2.94
2023-01-08T11:48:56.943Z,3.24
2023-01-08T11:50:28.411Z,3.14
2023-01-08T11:51:59.805Z,3.44
2023-01-08T11:53:31.157Z,4.71
2023-01-08T11:55:05.072Z,2.88
2023-01-08T11:56:41.494Z,3.51
2023-01-08T11:58:13.047Z,2.11
2023-01-08T11:59:44.476Z,3.80
2023-01-08T12:01:15.990Z,4.01
2023-01-08T12:02:57.630Z,2.57
2023-01-08T12:04:33.879Z,3.53
2023-01-08T12:06:05.232Z,3.77
2023-01-08T12:07:36.693Z,3.55
2023-01-08T12:09:08.396Z,2.41
2023-01-08T12:10:50.152Z,2.81
2023-01-08T12:12:21.494Z,3.00
2023-01-08T12:13:52.908Z,3.27
2023-01-08T12:15:24.427Z,2.52
2023-01-08T12:16:56.167Z,3.26
2023-01-08T12:18:27.715Z,2.61
2023-01-08T12:19:59.431Z,3.22
2023-01-08T12:21:30.745Z,2.39
2023-01-08T12:23:02.201Z,2.71
2023-01-08T12:24:33.597Z,2.34
2023-01-08T12:26:05.310Z,2.77
2023-01-08T12:27:55.938Z,2.99
2023-01-08T12:29:28.379Z,3.71
2023-01-08T12:30:59.850Z,2.61
2023-01-08T12:32:31.284Z,2.58
2023-01-08T12:34:02.764Z,3.14
2023-01-08T12:35:34.255Z,3.39
2023-01-08T12:37:05.741Z,2.93
2023-01-08T12:38:37.294Z,4.22
2023-01-08T12:40:08.808Z,3.30
2023-01-08T12:41:40.138Z,3.25
2023-01-08T12:43:12.817Z,2.47
2023-01-08T12:44:44.336Z,2.65
2023-01-08T12:46:15.849Z,2.16
2023-01-08T12:47:47.293Z,3.22
2023-01-08T12:49:18.770Z,2.23
2023-01-08T12:50:50.381Z,1.83
2023-01-08T12:52:21.971Z,2.11
2023-01-08T12:53:53.581Z,3.52
2023-01-08T12:55:25.167Z,3.16
2023-01-08T12:56:56.649Z,3.03
2023-01-08T12:58:27.963Z,3.18
2023-01-08T12:59:59.401Z,3.97
2023-01-08T13:01:30.905Z,3.10
2023-01-08T13:03:02.911Z,2.40
2023-01-08T13:04:34.455Z,2.21
2023-01-08T13:06:06.129Z,2.51
2023-01-08T13:07:37.506Z,2.49
2023-01-08T13:09:08.980Z,2.64
2023-01-08T13:10:40.796Z,2.32
2023-01-08T13:12:12.206Z,1.67
2023-01-08T13:13:43.550Z,1.41
2023-01-08T13:15:16.038Z,1.72
2023-01-08T13:16:47.677Z,2.05
2023-01-08T13:18:19.113Z,1.81
2023-01-08T13:19:50.493Z,1.54
2023-01-08T13:21:21.992Z,1.68
2023-01-08T13:22:53.329Z,2.15
2023-01-08T13:24:24.707Z,1.87
2023-01-08T13:25:56.107Z,1.39
2023-01-08T13:27:27.503Z,1.88
2023-01-08T13:28:59.086Z,1.73
2023-01-08T13:30:30.882Z,2.34
2023-01-08T13:32:02.317Z,2.16
2023-01-08T13:33:33.770Z,2.27
2023-01-08T13:35:05.141Z,1.95
2023-01-08T13:36:41.634Z,2.23
2023-01-08T13:38:13.198Z,2.16
2023-01-08T13:39:44.653Z,3.24
2023-01-08T13:41:16.197Z,2.80
2023-01-08T13:42:47.635Z,2.79
2023-01-08T13:44:18.923Z,3.22
2023-01-08T13:45:50.425Z,2.26
2023-01-08T13:47:21.983Z,2.29
2023-01-08T13:48:53.531Z,2.65
2023-01-08T13:50:24.940Z,2.85
2023-01-08T13:51:56.220Z,3.20
2023-01-08T13:53:27.531Z,2.49
2023-01-08T13:54:58.878Z,2.85
2023-01-08T13:56:30.277Z,2.76
2023-01-08T13:58:01.602Z,4.67
2023-01-08T13:59:32.982Z,3.89
2023-01-08T14:01:04.692Z,2.14
2023-01-08T14:02:36.101Z,2.28
2023-01-08T14:04:07.569Z,2.52
2023-01-08T14:05:49.193Z,2.03
2023-01-08T14:07:25.626Z,2.49
2023-01-08T14:08:57.237Z,1.81
2023-01-08T14:10:28.562Z,2.39
2023-01-08T14:11:59.972Z,1.76
2023-01-08T14:13:51.419Z,2.39
2023-01-08T14:15:38.418Z,3.09
2023-01-08T14:17:09.912Z,2.81
2023-01-08T14:18:56.402Z,2.64
2023-01-08T14:20:28.524Z,2.57
2023-01-08T14:21:59.939Z,1.77
2023-01-08T14:23:31.215Z,2.42
2023-01-08T14:25:02.550Z,1.81
2023-01-08T14:26:33.921Z,1.50
2023-01-08T14:28:05.242Z,2.21
2023-01-08T14:29:36.645Z,2.44
2023-01-08T14:31:08.084Z,3.33
2023-01-08T14:32:44.458Z,1.67
2023-01-08T14:34:26.478Z,2.42
2023-01-08T14:35:57.826Z,2.39
2023-01-08T14:37:29.265Z,2.71
2023-01-08T14:39:00.711Z,2.42
2023-01-08T14:40:32.058Z,4.12
2023-01-08T14:42:03.704Z,2.97
2023-01-08T14:43:35.069Z,2.97
2023-01-08T14:45:06.414Z,2.37
2023-01-08T14:46:37.881Z,2.27
2023-01-08T14:48:09.414Z,2.38
2023-01-08T14:49:40.978Z,2.15
2023-01-08T14:51:12.299Z,2.22
2023-01-08T14:52:43.684Z,2.74
2023-01-08T14:54:15.241Z,2.26
2023-01-08T14:55:46.585Z,3.39
2023-01-08T14:57:18.135Z,3.02
2023-01-08T14:58:49.538Z,2.56
2023-01-08T15:00:21.148Z,1.56
2023-01-08T15:01:52.751Z,1.94
2023-01-08T15:03:25.282Z,1.68
2023-01-08T15:04:56.622Z,2.16
2023-01-08T15:06:27.944Z,1.41
2023-01-08T15:07:59.474Z,2.18
2023-01-08T15:09:31.239Z,1.48
2023-01-08T15:11:07.743Z,2.94
2023-01-08T15:12:49.187Z,2.31
2023-01-08T15:14:41.524Z,2.17
2023-01-08T15:16:12.886Z,1.69
2023-01-08T15:18:13.241Z,1.75
2023-01-08T15:19:44.527Z,1.76
2023-01-08T15:21:15.854Z,1.38
2023-01-08T15:22:47.416Z,1.95
2023-01-08T15:24:18.752Z,1.90
2023-01-08T15:25:55.206Z,2.27
2023-01-08T15:27:26.557Z,2.60
2023-01-08T15:28:57.913Z,2.78
2023-01-08T15:30:29.444Z,2.85
2023-01-08T15:32:00.828Z,1.79
2023-01-08T15:33:32.249Z,1.59
2023-01-08T15:35:04.848Z,2.08
2023-01-08T15:36:41.487Z,2.97
2023-01-08T15:38:12.883Z,2.42
2023-01-08T15:39:44.229Z,2.46
2023-01-08T15:41:20.926Z,1.91
2023-01-08T15:42:52.251Z,1.93
2023-01-08T15:46:27.797Z,1.80
2023-01-08T15:47:59.104Z,2.35
2023-01-08T15:49:31.326Z,2.87
2023-01-08T15:51:02.897Z,1.85
2023-01-08T15:52:34.454Z,1.85
2023-01-08T15:54:05.865Z,2.03
2023-01-08T15:55:37.333Z,2.41
2023-01-08T15:57:08.741Z,2.80
2023-01-08T15:58:40.028Z,2.32
2023-01-08T16:00:11.502Z,2.58
2023-01-08T16:01:43.042Z,1.78
2023-01-08T16:03:14.494Z,2.50
2023-01-08T16:04:45.817Z,2.32
2023-01-08T16:06:17.320Z,2.98
2023-01-08T16:07:48.703Z,2.01
2023-01-08T16:09:19.997Z,2.82
2023-01-08T16:10:51.506Z,3.81
2023-01-08T16:12:32.858Z,3.53
2023-01-08T16:14:04.341Z,5.56
2023-01-08T16:15:35.714Z,4.69
2023-01-08T16:17:07.144Z,6.36
2023-01-08T16:18:38.569Z,5.11
2023-01-08T16:20:09.908Z,4.74
2023-01-08T16:21:41.286Z,3.51
2023-01-08T16:23:12.858Z,3.70
2023-01-08T16:24:44.194Z,2.98
2023-01-08T16:26:15.602Z,3.43
2023-01-08T16:27:47.208Z,3.28
2023-01-08T16:29:18.551Z,2.96
2023-01-08T16:30:50.145Z,3.05
2023-01-08T16:32:21.581Z,2.64
2023-01-08T16:33:52.999Z,2.61
2023-01-08T16:35:24.338Z,3.57
2023-01-08T16:36:55.688Z,3.40
2023-01-08T16:38:27.047Z,3.11
2023-01-08T16:39:58.441Z,3.88
2023-01-08T16:41:29.853Z,3.61
2023-01-08T16:43:01.488Z,3.82
2023-01-08T16:44:33.041Z,4.46
2023-01-08T16:46:04.602Z,5.25
2023-01-08T16:47:41.193Z,6.38
2023-01-08T16:49:12.516Z,4.13
2023-01-08T16:50:43.889Z,4.02
2023-01-08T16:52:15.326Z,5.65
2023-01-08T16:53:47.157Z,6.42
2023-01-08T16:55:18.477Z,5.23
2023-01-08T16:56:50.188Z,4.74
2023-01-08T16:58:21.520Z,5.89
2023-01-08T16:59:53.019Z,4.91
2023-01-08T17:01:24.532Z,4.39
2023-01-08T17:02:55.871Z,3.86
2023-01-08T17:04:27.280Z,3.89
2023-01-08T17:05:58.623Z,4.61
2023-01-08T17:07:30.037Z,3.10
2023-01-08T17:09:01.395Z,3.89
2023-01-08T17:10:32.694Z,6.18
2023-01-08T17:12:04.104Z,5.48
2023-01-08T17:13:35.560Z,4.37
2023-01-08T17:15:06.888Z,5.50
2023-01-08T17:16:38.274Z,4.56
2023-01-08T17:18:09.596Z,5.55
2023-01-08T17:19:40.922Z,3.93
2023-01-08T17:21:17.446Z,4.10
2023-01-08T17:22:48.996Z,3.62
2023-01-08T17:24:20.281Z,3.44
2023-01-08T17:25:51.628Z,3.49
2023-01-08T17:27:22.971Z,3.42
2023-01-08T17:28:54.228Z,3.62
2023-01-08T17:30:26.962Z,4.35
2023-01-08T17:31:58.451Z,4.69
2023-01-08T17:33:29.842Z,5.42
2023-01-08T17:35:01.367Z,5.73
2023-01-08T17:36:37.950Z,5.34
2023-01-08T17:38:09.268Z,4.32
2023-01-08T17:39:40.759Z,3.69
2023-01-08T17:41:18.312Z,3.80
2023-01-08T17:42:54.855Z,3.97
2023-01-08T17:44:26.391Z,4.79
2023-01-08T17:45:57.721Z,4.09
2023-01-08T17:47:29.050Z,3.31
2023-01-08T17:49:00.482Z,3.30
2023-01-08T17:50:33.157Z,2.82
2023-01-08T17:52:04.449Z,2.91
2023-01-08T17:53:46.468Z,2.99
2023-01-08T17:55:17.846Z,3.09
2023-01-08T17:57:17.847Z,4.53
2023-01-08T17:58:49.913Z,2.98
2023-01-08T18:00:31.601Z,2.62
2023-01-08T18:02:03.426Z,2.94
2023-01-08T18:03:34.838Z,2.55
2023-01-08T18:05:06.126Z,2.39
2023-01-08T18:06:37.779Z,2.97
2023-01-08T18:08:34.564Z,4.22
2023-01-08T18:10:11.102Z,4.28
2023-01-08T18:12:07.475Z,2.75
2023-01-08T18:13:38.747Z,3.57
2023-01-08T18:15:16.545Z,2.39
2023-01-08T18:17:13.386Z,3.35
2023-01-08T18:18:44.907Z,2.18
2023-01-08T18:20:16.338Z,4.41
2023-01-08T18:21:47.942Z,3.63
2023-01-08T18:23:20.379Z,3.67
2023-01-08T18:24:51.687Z,3.19
2023-01-08T18:26:49.174Z,3.02
2023-01-08T18:28:30.468Z,3.60
2023-01-08T18:30:01.900Z,4.55
2023-01-08T18:31:44.395Z,4.65
2023-01-08T18:33:18.729Z,3.85
2023-01-08T18:34:50.278Z,4.18
2023-01-08T18:38:25.508Z,4.04
2023-01-08T18:39:56.789Z,4.17
2023-01-08T18:41:28.271Z,3.89
2023-01-08T18:42:59.515Z,2.88
2023-01-08T18:44:30.842Z,3.81
2023-01-08T18:46:02.336Z,5.46
2023-01-08T18:47:44.751Z,3.74
2023-01-08T18:49:16.220Z,4.50
2023-01-08T18:50:47.716Z,4.78
2023-01-08T18:52:19.294Z,3.96
2023-01-08T18:53:50.626Z,4.37
2023-01-08T18:55:26.944Z,3.86
2023-01-08T18:57:13.634Z,3.87
2023-01-08T18:58:45.430Z,4.22
2023-01-08T19:00:28.536Z,4.31
2023-01-08T19:02:00.304Z,5.39
2023-01-08T19:03:47.963Z,3.31
2023-01-08T19:05:30.075Z,4.66
2023-01-08T19:07:01.360Z,5.74
2023-01-08T19:08:32.987Z,5.92
2023-01-08T19:10:14.289Z,5.07
2023-01-08T19:11:45.601Z,5.54
2023-01-08T19:13:17.045Z,5.94
2023-01-08T19:14:58.522Z,5.29
2023-01-08T19:16:49.911Z,6.01
2023-01-08T19:18:49.890Z,5.42
2023-01-08T19:20:26.747Z,7.04
2023-01-08T19:22:15.006Z,6.38
2023-01-08T19:23:51.467Z,4.79
2023-01-08T19:25:23.075Z,6.18
2023-01-08T19:26:59.993Z,4.42
2023-01-08T19:28:32.070Z,3.73
2023-01-08T19:30:03.401Z,4.57
2023-01-08T19:31:34.721Z,5.19
2023-01-08T19:33:06.022Z,4.75
2023-01-08T19:34:37.576Z,3.62
2023-01-08T19:36:18.965Z,3.76
2023-01-08T19:37:50.342Z,5.04
2023-01-08T19:39:39.754Z,3.59
2023-01-08T19:41:11.183Z,3.81
2023-01-08T19:42:52.473Z,4.28
2023-01-08T19:44:23.748Z,4.68
2023-01-08T19:45:55.740Z,5.12
2023-01-08T19:47:28.164Z,5.47
2023-01-08T19:49:00.023Z,3.52
2023-01-08T19:50:31.528Z,4.31
2023-01-08T19:52:07.999Z,4.76
2023-01-08T19:53:40.210Z,5.02
2023-01-08T19:55:17.813Z,3.87
2023-01-08T19:56:49.127Z,4.54
2023-01-08T19:58:21.407Z,4.02
2023-01-08T20:00:09.106Z,3.67
2023-01-08T20:01:42.729Z,3.74
2023-01-08T20:03:14.781Z,4.64
2023-01-08T20:04:46.120Z,4.06
2023-01-08T20:06:17.415Z,3.79
2023-01-08T20:07:49.134Z,4.31
2023-01-08T20:09:20.672Z,4.60
2023-01-08T20:10:52.300Z,3.94
2023-01-08T20:12:23.896Z,4.29
2023-01-08T20:14:08.970Z,3.64
2023-01-08T20:15:40.741Z,3.84
2023-01-08T20:17:12.052Z,2.92
2023-01-08T20:18:43.462Z,4.30
2023-01-08T20:20:15.003Z,4.40
2023-01-08T20:21:46.283Z,4.89
2023-01-08T20:23:17.682Z,3.51
2023-01-08T20:24:49.823Z,4.80
2023-01-08T20:26:21.732Z,3.86
2023-01-08T20:27:53.137Z,3.45
2023-01-08T20:29:29.949Z,3.97
2023-01-08T20:31:20.321Z,3.79
2023-01-08T20:33:09.763Z,3.78
2023-01-08T20:34:41.079Z,4.04
2023-01-08T20:36:33.316Z,3.58
2023-01-08T20:38:09.835Z,2.67